createdAt,value
2019-02-23T00:01:19.183Z,103752.48
2019-02-23T00:03:48.583Z,103750.66
2019-02-23T00:06:29.007Z,103740.48
2019-02-23T00:08:48.943Z,103753.22
2019-02-23T00:11:18.293Z,103743.11
2019-02-23T00:13:47.638Z,103737.52
2019-02-23T00:16:16.948Z,103745.63
2019-02-23T00:18:46.238Z,103747.63
2019-02-23T00:21:15.559Z,103754.64
2019-02-23T00:23:44.895Z,103755.22
2019-02-23T00:26:14.230Z,103755.78
2019-02-23T00:28:43.572Z,103750.64
2019-02-23T00:31:12.861Z,103747.28
2019-02-23T00:33:42.176Z,103752.06
2019-02-23T00:36:11.476Z,103749.84
2019-02-23T00:38:40.775Z,103756.80
2019-02-23T00:41:10.053Z,103758.55
2019-02-23T00:43:39.347Z,103758.05
2019-02-23T00:46:08.747Z,103757.11
2019-02-23T00:48:38.061Z,103760.44
2019-02-23T00:51:07.335Z,103758.26
2019-02-23T00:53:36.673Z,103755.56
2019-02-23T00:56:05.954Z,103758.96
2019-02-23T00:58:35.250Z,103761.48
2019-02-23T01:01:04.670Z,103761.48
2019-02-23T01:03:34.037Z,103760.77
2019-02-23T01:06:03.374Z,103756.95
2019-02-23T01:08:32.709Z,103752.02
2019-02-23T01:11:02.011Z,103759.17
2019-02-23T01:13:31.346Z,103762.63
2019-02-23T01:16:00.628Z,103762.02
2019-02-23T01:18:29.963Z,103749.91
2019-02-23T01:20:59.310Z,103760.69
2019-02-23T01:23:28.636Z,103760.48
2019-02-23T01:25:57.959Z,103753.64
2019-02-23T01:28:27.237Z,103756.57
2019-02-23T01:30:56.530Z,103752.63
2019-02-23T01:33:25.839Z,103747.99
2019-02-23T01:35:55.186Z,103754.52
2019-02-23T01:38:24.482Z,103758.05
2019-02-23T01:40:53.798Z,103751.66
2019-02-23T01:43:23.071Z,103741.66
2019-02-23T01:45:52.387Z,103735.10
2019-02-23T01:48:21.658Z,103734.05
2019-02-23T01:50:50.974Z,103739.92
2019-02-23T01:53:20.243Z,103739.23
2019-02-23T01:55:49.558Z,103730.72
2019-02-23T01:58:18.917Z,103728.80
2019-02-23T02:00:48.337Z,103731.30
2019-02-23T02:03:17.644Z,103739.74
2019-02-23T02:05:47.043Z,103729.25
2019-02-23T02:08:16.311Z,103715.89
2019-02-23T02:10:45.624Z,103720.12
2019-02-23T02:13:14.926Z,103719.26
2019-02-23T02:15:44.147Z,103716.61
2019-02-23T02:18:13.460Z,103722.55
2019-02-23T02:20:42.766Z,103725.28
2019-02-23T02:23:12.095Z,103721.25
2019-02-23T02:25:41.511Z,103720.23
2019-02-23T02:28:10.859Z,103706.36
2019-02-23T02:30:40.067Z,103705.09
2019-02-23T02:33:09.401Z,103696.55
2019-02-23T02:35:38.694Z,103706.33
2019-02-23T02:38:07.990Z,103696.66
2019-02-23T02:40:37.248Z,103689.11
2019-02-23T02:43:06.517Z,103694.13
2019-02-23T02:45:35.775Z,103687.26
2019-02-23T02:48:05.069Z,103690.53
2019-02-23T02:50:34.529Z,103698.60
2019-02-23T02:53:03.913Z,103695.50
2019-02-23T02:55:33.200Z,103702.53
2019-02-23T02:58:02.552Z,103698.91
2019-02-23T03:00:31.900Z,103707.52
2019-02-23T03:03:01.205Z,103706.36
2019-02-23T03:05:30.475Z,103709.77
2019-02-23T03:07:59.780Z,103714.67
2019-02-23T03:10:29.139Z,103714.19
2019-02-23T03:12:58.405Z,103708.92
2019-02-23T03:15:27.691Z,103695.66
2019-02-23T03:17:56.971Z,103692.78
2019-02-23T03:20:36.277Z,103693.64
2019-02-23T03:22:57.238Z,103696.07
2019-02-23T03:25:26.560Z,103696.77
2019-02-23T03:27:55.829Z,103699.80
2019-02-23T03:30:25.248Z,103693.97
2019-02-23T03:32:54.494Z,103699.30
2019-02-23T03:35:23.850Z,103691.77
2019-02-23T03:37:53.125Z,103686.36
2019-02-23T03:40:22.413Z,103687.59
2019-02-23T03:42:51.674Z,103697.77
2019-02-23T03:45:20.969Z,103701.52
2019-02-23T03:47:50.231Z,103704.74
2019-02-23T03:50:19.516Z,103703.80
2019-02-23T03:52:48.830Z,103702.11
2019-02-23T03:55:18.103Z,103706.35
2019-02-23T03:57:47.382Z,103707.01
2019-02-23T04:00:16.671Z,103703.48
2019-02-23T04:02:46.008Z,103702.48
2019-02-23T04:05:15.298Z,103706.09
2019-02-23T04:07:44.553Z,103707.99
2019-02-23T04:10:13.932Z,103709.98
2019-02-23T04:12:43.178Z,103719.88
2019-02-23T04:15:12.502Z,103717.70
2019-02-23T04:17:41.758Z,103721.63
2019-02-23T04:20:11.039Z,103726.06
2019-02-23T04:22:40.341Z,103724.80
2019-02-23T04:25:09.616Z,103733.92
2019-02-23T04:27:38.918Z,103734.53
2019-02-23T04:30:08.302Z,103733.91
2019-02-23T04:32:37.601Z,103749.20
2019-02-23T04:35:06.897Z,103751.48
2019-02-23T04:37:36.171Z,103754.23
2019-02-23T04:40:05.839Z,103752.19
2019-02-23T04:42:35.145Z,103751.58
2019-02-23T04:45:04.634Z,103757.05
2019-02-23T04:47:33.930Z,103755.61
2019-02-23T04:50:03.200Z,103755.44
2019-02-23T04:52:32.463Z,103754.25
2019-02-23T04:55:01.728Z,103762.46
2019-02-23T04:57:31.024Z,103756.59
2019-02-23T05:00:00.349Z,103761.11
2019-02-23T05:02:29.746Z,103756.38
2019-02-23T05:04:59.069Z,103750.53
2019-02-23T05:07:28.342Z,103763.39
2019-02-23T05:09:57.621Z,103766.88
2019-02-23T05:12:28.229Z,103758.08
2019-02-23T05:14:57.575Z,103756.94
2019-02-23T05:17:26.858Z,103757.95
2019-02-23T05:19:56.138Z,103760.77
2019-02-23T05:22:25.417Z,103761.81
2019-02-23T05:24:54.748Z,103767.43
2019-02-23T05:27:24.049Z,103764.73
2019-02-23T05:29:53.318Z,103775.31
2019-02-23T05:32:22.641Z,103779.34
2019-02-23T05:34:51.917Z,103773.41
2019-02-23T05:37:21.233Z,103774.09
2019-02-23T05:39:50.538Z,103772.34
2019-02-23T05:42:19.847Z,103770.77
2019-02-23T05:44:49.150Z,103773.70
2019-02-23T05:47:18.408Z,103780.56
2019-02-23T05:49:47.736Z,103783.33
2019-02-23T05:52:16.992Z,103777.30
2019-02-23T05:54:46.308Z,103781.88
2019-02-23T05:57:15.614Z,103779.12
2019-02-23T05:59:45.049Z,103789.42
2019-02-23T06:02:14.392Z,103793.47
2019-02-23T06:04:43.672Z,103790.16
2019-02-23T06:07:12.994Z,103801.16
2019-02-23T06:09:42.294Z,103802.38
2019-02-23T06:12:11.607Z,103801.88
2019-02-23T06:14:40.970Z,103801.88
2019-02-23T06:17:10.271Z,103799.48
2019-02-23T06:19:39.668Z,103800.04
2019-02-23T06:22:08.950Z,103799.34
2019-02-23T06:24:38.258Z,103805.20
2019-02-23T06:27:07.555Z,103804.58
2019-02-23T06:29:36.962Z,103801.33
2019-02-23T06:32:06.235Z,103802.56
2019-02-23T06:34:35.610Z,103806.88
2019-02-23T06:37:04.977Z,103807.03
2019-02-23T06:39:34.349Z,103811.88
2019-02-23T06:42:03.630Z,103812.62
2019-02-23T06:44:33.038Z,103804.69
2019-02-23T06:47:02.369Z,103808.66
2019-02-23T06:49:31.642Z,103817.30
2019-02-23T06:52:04.227Z,103812.87
2019-02-23T06:54:31.986Z,103817.64
2019-02-23T06:57:01.356Z,103812.24
2019-02-23T06:59:30.722Z,103820.06
2019-02-23T07:02:00.150Z,103822.16
2019-02-23T07:04:29.426Z,103819.25
2019-02-23T07:06:58.753Z,103820.78
2019-02-23T07:09:28.071Z,103817.09
2019-02-23T07:11:57.456Z,103815.72
2019-02-23T07:14:26.744Z,103817.86
2019-02-23T07:16:56.047Z,103814.09
2019-02-23T07:19:25.422Z,103820.98
2019-02-23T07:21:54.734Z,103833.60
2019-02-23T07:24:24.018Z,103823.65
2019-02-23T07:26:53.318Z,103833.27
2019-02-23T07:29:22.634Z,103828.09
2019-02-23T07:31:51.962Z,103834.56
2019-02-23T07:34:21.243Z,103823.13
2019-02-23T07:36:50.520Z,103820.92
2019-02-23T07:39:19.798Z,103817.73
2019-02-23T07:41:49.110Z,103813.56
2019-02-23T07:44:18.461Z,103814.56
2019-02-23T07:46:47.934Z,103811.06
2019-02-23T07:49:17.424Z,103803.86
2019-02-23T07:51:46.727Z,103801.63
2019-02-23T07:54:15.987Z,103810.36
2019-02-23T07:56:45.324Z,103799.15
2019-02-23T07:59:14.653Z,103808.84
2019-02-23T08:01:44.158Z,103807.39
2019-02-23T08:04:13.421Z,103800.75
2019-02-23T08:06:42.688Z,103798.04
2019-02-23T08:09:12.377Z,103805.31
2019-02-23T08:11:41.816Z,103797.34
2019-02-23T08:14:11.160Z,103809.25
2019-02-23T08:16:40.446Z,103806.52
2019-02-23T08:19:09.761Z,103806.22
2019-02-23T08:21:39.077Z,103802.95
2019-02-23T08:24:08.469Z,103806.37
2019-02-23T08:26:37.811Z,103806.30
2019-02-23T08:29:07.175Z,103806.55
2019-02-23T08:31:36.524Z,103822.02
2019-02-23T08:34:06.008Z,103815.80
2019-02-23T08:36:35.438Z,103802.86
2019-02-23T08:39:05.323Z,103810.00
2019-02-23T08:41:34.641Z,103810.65
2019-02-23T08:44:03.951Z,103811.64
2019-02-23T08:46:33.293Z,103811.81
2019-02-23T08:49:03.763Z,103813.84
2019-02-23T08:51:33.029Z,103823.86
2019-02-23T08:54:02.352Z,103810.73
2019-02-23T08:56:34.009Z,103815.20
2019-02-23T08:59:03.332Z,103813.31
2019-02-23T09:01:32.725Z,103810.70
2019-02-23T09:04:02.326Z,103802.72
2019-02-23T09:06:31.945Z,103811.94
2019-02-23T09:09:01.326Z,103802.48
2019-02-23T09:11:33.693Z,103801.24
2019-02-23T09:14:03.292Z,103802.33
2019-02-23T09:16:32.794Z,103796.45
2019-02-23T09:19:02.098Z,103805.19
2019-02-23T09:21:32.988Z,103805.48
2019-02-23T09:24:02.377Z,103799.64
2019-02-23T09:26:31.745Z,103804.04
2019-02-23T09:29:06.410Z,103805.81
2019-02-23T09:31:35.835Z,103809.07
2019-02-23T09:34:05.412Z,103805.74
2019-02-23T09:36:34.764Z,103803.41
2019-02-23T09:39:04.673Z,103809.34
2019-02-23T09:41:34.003Z,103799.05
2019-02-23T09:44:03.302Z,103793.44
2019-02-23T09:46:32.664Z,103801.66
2019-02-23T09:49:01.942Z,103791.64
2019-02-23T09:51:31.341Z,103791.38
2019-02-23T09:54:00.647Z,103791.89
2019-02-23T09:56:29.937Z,103791.03
2019-02-23T09:58:59.382Z,103788.09
2019-02-23T10:01:28.878Z,103774.92
2019-02-23T10:03:58.169Z,103776.88
2019-02-23T10:06:27.481Z,103772.42
2019-02-23T10:08:56.771Z,103769.73
2019-02-23T10:11:26.064Z,103780.85
2019-02-23T10:13:55.391Z,103774.83
2019-02-23T10:16:24.727Z,103774.34
2019-02-23T10:18:54.099Z,103775.39
2019-02-23T10:21:23.425Z,103773.64
2019-02-23T10:23:52.771Z,103767.94
2019-02-23T10:26:22.099Z,103757.52
2019-02-23T10:28:51.583Z,103756.98
2019-02-23T10:31:20.941Z,103753.22
2019-02-23T10:33:50.229Z,103762.39
2019-02-23T10:36:19.608Z,103755.84
2019-02-23T10:38:48.957Z,103748.20
2019-02-23T10:41:18.305Z,103748.84
2019-02-23T10:43:47.649Z,103747.59
2019-02-23T10:46:17.028Z,103745.69
2019-02-23T10:48:46.379Z,103749.15
2019-02-23T10:51:15.705Z,103747.67
2019-02-23T10:53:45.111Z,103748.43
2019-02-23T10:56:14.476Z,103741.13
2019-02-23T10:58:43.764Z,103745.47
2019-02-23T11:01:13.256Z,103733.50
2019-02-23T11:03:42.617Z,103730.45
2019-02-23T11:06:11.965Z,103723.33
2019-02-23T11:08:41.278Z,103716.36
2019-02-23T11:11:10.639Z,103722.06
2019-02-23T11:13:39.952Z,103719.23
2019-02-23T11:16:09.441Z,103712.97
2019-02-23T11:18:38.860Z,103714.06
2019-02-23T11:21:08.203Z,103693.64
2019-02-23T11:23:44.228Z,103685.17
2019-02-23T11:26:08.697Z,103683.48
2019-02-23T11:28:38.055Z,103670.97
2019-02-23T11:31:07.387Z,103669.28
2019-02-23T11:33:36.711Z,103675.23
2019-02-23T11:36:06.085Z,103677.78
2019-02-23T11:38:35.397Z,103673.38
2019-02-23T11:41:04.755Z,103666.91
2019-02-23T11:43:34.117Z,103670.84
2019-02-23T11:46:03.460Z,103670.16
2019-02-23T11:48:32.821Z,103673.05
2019-02-23T11:51:02.146Z,103673.66
2019-02-23T11:53:31.511Z,103662.80
2019-02-23T11:56:00.971Z,103667.55
2019-02-23T11:58:30.326Z,103673.26
2019-02-23T12:00:59.686Z,103678.06
2019-02-23T12:03:29.047Z,103674.86
2019-02-23T12:05:58.363Z,103666.22
2019-02-23T12:08:27.753Z,103662.02
2019-02-23T12:10:57.048Z,103667.16
2019-02-23T12:13:26.399Z,103669.55
2019-02-23T12:15:55.707Z,103664.96
2019-02-23T12:18:25.019Z,103657.91
2019-02-23T12:20:54.342Z,103651.44
2019-02-23T12:23:23.657Z,103658.95
2019-02-23T12:25:53.006Z,103655.30
2019-02-23T12:28:22.417Z,103653.95
2019-02-23T12:30:51.803Z,103651.89
2019-02-23T12:33:21.154Z,103659.93
2019-02-23T12:35:50.466Z,103655.86
2019-02-23T12:38:19.859Z,103653.10
2019-02-23T12:40:49.203Z,103645.62
2019-02-23T12:43:18.589Z,103645.62
2019-02-23T12:45:47.888Z,103640.16
2019-02-23T12:48:17.186Z,103632.87
2019-02-23T12:50:46.527Z,103630.39
2019-02-23T12:53:15.938Z,103626.23
2019-02-23T12:55:48.643Z,103618.25
2019-02-23T12:58:17.965Z,103614.27
2019-02-23T13:00:47.299Z,103612.94
2019-02-23T13:03:16.576Z,103608.63
2019-02-23T13:05:45.896Z,103605.73
2019-02-23T13:08:15.215Z,103604.97
2019-02-23T13:10:44.649Z,103609.66
2019-02-23T13:13:32.223Z,103604.02
2019-02-23T13:16:19.185Z,103597.59
2019-02-23T13:19:47.786Z,103595.55
2019-02-23T13:22:47.464Z,103604.48
2019-02-23T13:25:48.277Z,103595.44
2019-02-23T13:28:39.920Z,103595.58
2019-02-23T13:31:46.028Z,103594.80
2019-02-23T13:35:01.831Z,103591.96
2019-02-23T13:37:46.476Z,103590.73
2019-02-23T13:40:46.607Z,103592.69
2019-02-23T13:43:32.166Z,103591.24
2019-02-23T13:46:10.976Z,103592.95
2019-02-23T13:49:48.490Z,103583.41
2019-02-23T13:52:45.286Z,103580.48
2019-02-23T13:55:35.311Z,103576.75
2019-02-23T13:58:10.900Z,103566.66
2019-02-23T14:01:06.341Z,103575.47
2019-02-23T14:04:00.723Z,103572.36
2019-02-23T14:07:13.860Z,103574.77
2019-02-23T14:10:17.867Z,103559.41
2019-02-23T14:13:26.515Z,103556.29
2019-02-23T14:16:30.771Z,103557.84
2019-02-23T14:19:49.766Z,103565.94
2019-02-23T14:22:36.569Z,103560.27
2019-02-23T14:26:01.939Z,103547.11
2019-02-23T14:28:54.379Z,103551.61
2019-02-23T14:31:49.148Z,103549.50
2019-02-23T14:34:55.279Z,103549.31
2019-02-23T14:38:23.952Z,103551.20
2019-02-23T14:41:28.095Z,103557.28
2019-02-23T14:44:26.050Z,103555.27
2019-02-23T14:47:45.267Z,103555.61
2019-02-23T14:50:58.006Z,103552.93
2019-02-23T14:54:04.244Z,103548.89
2019-02-23T14:57:17.158Z,103547.41
2019-02-23T15:00:33.423Z,103543.83
2019-02-23T15:03:57.594Z,103551.67
2019-02-23T15:06:51.090Z,103546.58
2019-02-23T15:10:08.977Z,103536.58
2019-02-23T15:13:34.440Z,103549.51
2019-02-23T15:16:38.636Z,103547.59
2019-02-23T15:20:03.951Z,103540.12
2019-02-23T15:22:59.839Z,103552.28
2019-02-23T15:26:04.846Z,103550.63
2019-02-23T15:29:27.237Z,103550.19
2019-02-23T15:32:26.269Z,103557.56
2019-02-23T15:35:10.169Z,103556.30
2019-02-23T15:38:13.214Z,103551.34
2019-02-23T15:41:13.159Z,103544.41
2019-02-23T15:44:06.998Z,103548.40
2019-02-23T15:47:02.327Z,103543.67
2019-02-23T15:49:41.164Z,103542.85
2019-02-23T15:52:10.553Z,103543.88
2019-02-23T15:54:39.980Z,103544.16
2019-02-23T15:57:09.373Z,103547.25
2019-02-23T15:59:40.525Z,103548.42
2019-02-23T16:02:18.978Z,103541.87
2019-02-23T16:04:48.332Z,103551.55
2019-02-23T16:07:17.697Z,103551.87
2019-02-23T16:09:47.136Z,103554.41
2019-02-23T16:12:16.720Z,103547.09
2019-02-23T16:14:46.088Z,103544.37
2019-02-23T16:17:15.456Z,103545.13
2019-02-23T16:19:44.796Z,103546.20
2019-02-23T16:37:54.321Z,103545.76
2019-02-23T16:40:33.007Z,103551.59
2019-02-23T16:43:15.240Z,103550.57
2019-02-23T16:45:56.828Z,103548.94
2019-02-23T16:50:10.772Z,103549.78
2019-02-23T16:52:09.301Z,103551.59
2019-02-23T16:55:07.735Z,103547.30
2019-02-23T17:04:53.460Z,103549.75
2019-02-23T17:10:16.196Z,103566.08
2019-02-23T17:13:47.861Z,103568.58
2019-02-23T17:16:41.629Z,103561.95
2019-02-23T17:19:44.456Z,103575.35
2019-02-23T17:22:39.940Z,103570.67
2019-02-23T17:25:36.115Z,103582.97
2019-02-23T17:28:10.871Z,103574.33
2019-02-23T17:36:52.876Z,103582.74
2019-02-23T17:39:34.068Z,103577.88
2019-02-23T17:42:27.730Z,103578.45
2019-02-23T17:45:15.167Z,103583.50
2019-02-23T17:48:09.164Z,103576.33
2019-02-23T17:51:16.374Z,103575.86
2019-02-23T18:03:31.536Z,103582.50
2019-02-23T18:06:14.006Z,103590.24
2019-02-23T18:09:07.998Z,103590.94
2019-02-23T18:11:40.908Z,103587.77
2019-02-23T18:14:11.056Z,103587.27
2019-02-23T18:16:47.759Z,103587.77
2019-02-23T18:19:24.247Z,103593.45
2019-02-23T18:21:53.886Z,103588.81
2019-02-23T18:24:39.374Z,103589.20
2019-02-23T18:27:12.837Z,103589.30
2019-02-23T18:29:46.455Z,103594.36
2019-02-23T18:32:28.141Z,103591.92
2019-02-23T18:35:09.764Z,103593.44
2019-02-23T18:37:55.478Z,103594.02
2019-02-23T18:40:40.178Z,103597.04
2019-02-23T18:43:23.586Z,103596.35
2019-02-23T18:46:10.274Z,103606.07
2019-02-23T18:48:42.545Z,103600.80
2019-02-23T18:51:12.743Z,103596.95
2019-02-23T18:54:14.597Z,103596.46
2019-02-23T18:56:47.225Z,103597.18
2019-02-23T18:59:27.466Z,103596.63
2019-02-23T19:02:20.328Z,103591.86
2019-02-23T19:04:53.251Z,103591.19
2019-02-23T19:07:21.572Z,103598.96
2019-02-23T19:09:50.828Z,103592.77
2019-02-23T19:12:26.710Z,103586.64
2019-02-23T19:15:53.562Z,103579.69
2019-02-23T19:19:32.369Z,103579.69
2019-02-23T19:22:51.290Z,103581.13
2019-02-23T19:26:07.834Z,103591.63
2019-02-23T19:29:13.816Z,103588.14
2019-02-23T19:32:09.609Z,103585.13
2019-02-23T19:34:39.096Z,103585.59
2019-02-23T19:37:08.512Z,103590.86
2019-02-23T19:39:37.859Z,103588.83
2019-02-23T19:42:08.203Z,103588.97
2019-02-23T19:44:37.504Z,103591.25
2019-02-23T19:47:28.139Z,103582.53
2019-02-23T19:50:00.949Z,103587.42
2019-02-23T19:52:30.475Z,103596.55
2019-02-23T19:54:59.810Z,103587.44
2019-02-23T19:57:29.315Z,103595.59
2019-02-23T19:59:58.634Z,103602.56
2019-02-23T20:02:28.016Z,103602.25
2019-02-23T20:04:57.397Z,103607.92
2019-02-23T20:07:26.768Z,103602.20
2019-02-23T20:09:56.203Z,103603.77
2019-02-23T20:12:25.508Z,103610.70
2019-02-23T20:14:55.178Z,103606.70
2019-02-23T20:17:24.548Z,103606.55
2019-02-23T20:19:53.908Z,103605.33
2019-02-23T20:22:23.374Z,103606.73
2019-02-23T20:24:52.841Z,103605.07
2019-02-23T20:27:22.305Z,103603.84
2019-02-23T20:29:51.652Z,103608.51
2019-02-23T20:32:20.968Z,103610.52
2019-02-23T20:34:50.467Z,103615.42
2019-02-23T20:37:19.824Z,103615.61
2019-02-23T20:39:49.179Z,103611.98
2019-02-23T20:42:18.909Z,103615.08
2019-02-23T20:44:48.207Z,103616.89
2019-02-23T20:47:17.621Z,103622.70
2019-02-23T20:49:46.983Z,103607.77
2019-02-23T20:52:16.282Z,103604.43
2019-02-23T20:54:45.610Z,103604.31
2019-02-23T20:57:14.943Z,103601.94
2019-02-23T20:59:44.235Z,103604.79
2019-02-23T21:02:13.538Z,103608.32
2019-02-23T21:04:43.000Z,103610.89
2019-02-23T21:07:12.307Z,103606.67
2019-02-23T21:09:41.715Z,103603.41
2019-02-23T21:12:11.024Z,103603.10
2019-02-23T21:14:40.391Z,103600.41
2019-02-23T21:17:09.709Z,103596.35
2019-02-23T21:19:39.071Z,103594.53
2019-02-23T21:22:08.403Z,103606.23
2019-02-23T21:24:37.732Z,103603.69
2019-02-23T21:27:12.807Z,103592.13
2019-02-23T21:29:38.197Z,103594.53
2019-02-23T21:32:07.609Z,103589.51
2019-02-23T21:34:36.987Z,103594.31
2019-02-23T21:37:06.376Z,103594.55
2019-02-23T21:39:35.715Z,103592.94
2019-02-23T21:42:05.033Z,103587.34
2019-02-23T21:44:34.384Z,103593.87
2019-02-23T21:47:03.713Z,103585.34
2019-02-23T21:49:33.009Z,103581.06
2019-02-23T21:52:02.366Z,103583.06
2019-02-23T21:54:31.661Z,103582.27
2019-02-23T21:57:01.029Z,103586.28
2019-02-23T21:59:30.404Z,103585.66
2019-02-23T22:01:59.737Z,103586.98
2019-02-23T22:04:29.034Z,103588.27
2019-02-23T22:06:58.394Z,103581.89
2019-02-23T22:09:27.641Z,103584.80
2019-02-23T22:11:56.930Z,103589.30
2019-02-23T22:14:26.255Z,103594.20
2019-02-23T22:16:55.545Z,103585.26
2019-02-23T22:19:24.885Z,103595.69
2019-02-23T22:21:54.168Z,103588.16
2019-02-23T22:24:23.509Z,103589.92
2019-02-23T22:26:52.793Z,103587.70
2019-02-23T22:29:22.074Z,103580.33
2019-02-23T22:31:51.346Z,103588.33
2019-02-23T22:34:20.695Z,103579.81
2019-02-23T22:36:49.985Z,103583.42
2019-02-23T22:39:19.277Z,103577.66
2019-02-23T22:41:49.852Z,103573.94
2019-02-23T22:44:19.229Z,103590.99
2019-02-23T22:46:48.511Z,103586.66
2019-02-23T22:49:17.797Z,103585.89
2019-02-23T22:51:47.084Z,103593.42
2019-02-23T22:54:16.392Z,103599.09
2019-02-23T22:56:45.656Z,103602.22
2019-02-23T22:59:14.959Z,103600.23
2019-02-23T23:01:44.422Z,103603.36
2019-02-23T23:04:13.740Z,103606.11
2019-02-23T23:06:43.012Z,103606.70
2019-02-23T23:09:19.550Z,103607.20
2019-02-23T23:11:48.841Z,103606.63
2019-02-23T23:14:18.158Z,103611.53
2019-02-23T23:16:47.438Z,103606.60
2019-02-23T23:19:16.784Z,103611.75
2019-02-23T23:21:46.060Z,103605.12
2019-02-23T23:24:15.325Z,103606.02
2019-02-23T23:26:44.599Z,103601.60
2019-02-23T23:29:13.897Z,103607.84
2019-02-23T23:31:43.195Z,103611.70
2019-02-23T23:34:12.477Z,103612.03
2019-02-23T23:36:41.778Z,103614.06
2019-02-23T23:39:11.013Z,103613.33
2019-02-23T23:41:40.270Z,103618.59
2019-02-23T23:44:09.531Z,103616.03
2019-02-23T23:46:38.795Z,103614.55
2019-02-23T23:49:08.048Z,103613.50
2019-02-23T23:51:37.322Z,103614.86
2019-02-23T23:54:06.616Z,103606.55
2019-02-23T23:56:35.880Z,103615.34
2019-02-23T23:59:05.134Z,103619.26
